sensor_id;sensor_type;location;lat;lon;timestamp;pressure;altitude;pressure_sealevel;temperature;humidity
44044;BME280;29709;52.396;16.796;2022-07-30T00:03:02;101813.91;;;20.21;48.47
44044;BME280;29709;52.396;16.796;2022-07-30T00:06:05;101810.05;;;20.15;48.83
44044;BME280;29709;52.396;16.796;2022-07-30T00:09:08;101809.61;;;20.11;48.94
44044;BME280;29709;52.396;16.796;2022-07-30T00:15:30;101797.96;;;20.01;48.64
44044;BME280;29709;52.396;16.796;2022-07-30T00:18:34;101805.20;;;19.96;48.77
44044;BME280;29709;52.396;16.796;2022-07-30T00:21:37;101799.40;;;19.91;49.00
44044;BME280;29709;52.396;16.796;2022-07-30T00:25:08;101800.85;;;19.86;49.26
44044;BME280;29709;52.396;16.796;2022-07-30T00:28:12;101798.92;;;19.87;49.02
44044;BME280;29709;52.396;16.796;2022-07-30T00:31:15;101792.26;;;19.81;49.48
44044;BME280;29709;52.396;16.796;2022-07-30T00:34:18;101793.32;;;19.80;49.47
44044;BME280;29709;52.396;16.796;2022-07-30T00:37:21;101797.58;;;19.76;49.88
44044;BME280;29709;52.396;16.796;2022-07-30T00:40:27;101791.13;;;19.76;49.61
44044;BME280;29709;52.396;16.796;2022-07-30T00:43:30;101793.27;;;19.74;49.87
44044;BME280;29709;52.396;16.796;2022-07-30T00:46:33;101796.66;;;19.69;49.74
44044;BME280;29709;52.396;16.796;2022-07-30T00:49:36;101790.70;;;19.72;49.85
44044;BME280;29709;52.396;16.796;2022-07-30T00:53:08;101785.27;;;19.64;49.84
44044;BME280;29709;52.396;16.796;2022-07-30T00:56:11;101781.18;;;19.60;49.59
44044;BME280;29709;52.396;16.796;2022-07-30T00:59:15;101778.39;;;19.60;50.17
44044;BME280;29709;52.396;16.796;2022-07-30T01:02:18;101775.61;;;19.60;50.10
44044;BME280;29709;52.396;16.796;2022-07-30T01:05:22;101771.95;;;19.59;49.81
44044;BME280;29709;52.396;16.796;2022-07-30T01:08:25;101788.48;;;19.61;50.03
44044;BME280;29709;52.396;16.796;2022-07-30T01:11:34;101784.41;;;19.64;49.76
44044;BME280;29709;52.396;16.796;2022-07-30T01:14:39;101792.98;;;19.62;50.39
44044;BME280;29709;52.396;16.796;2022-07-30T01:17:47;101791.48;;;19.59;50.02
44044;BME280;29709;52.396;16.796;2022-07-30T01:21:22;101779.84;;;19.56;50.27
44044;BME280;29709;52.396;16.796;2022-07-30T01:24:34;101774.44;;;19.54;50.27
44044;BME280;29709;52.396;16.796;2022-07-30T01:27:51;101770.55;;;19.49;50.53
44044;BME280;29709;52.396;16.796;2022-07-30T01:30:57;101758.52;;;19.48;50.04
44044;BME280;29709;52.396;16.796;2022-07-30T01:34:02;101758.13;;;19.51;50.48
44044;BME280;29709;52.396;16.796;2022-07-30T01:37:32;101754.69;;;19.49;50.44
44044;BME280;29709;52.396;16.796;2022-07-30T01:40:37;101741.14;;;19.46;49.88
44044;BME280;29709;52.396;16.796;2022-07-30T01:43:42;101740.27;;;19.46;50.26
44044;BME280;29709;52.396;16.796;2022-07-30T01:50:11;101752.50;;;19.45;50.59
44044;BME280;29709;52.396;16.796;2022-07-30T01:53:45;101760.65;;;19.46;50.57
44044;BME280;29709;52.396;16.796;2022-07-30T01:56:50;101754.63;;;19.43;50.65
44044;BME280;29709;52.396;16.796;2022-07-30T02:00:02;101750.54;;;19.39;50.60
44044;BME280;29709;52.396;16.796;2022-07-30T02:03:06;101746.70;;;19.40;50.78
44044;BME280;29709;52.396;16.796;2022-07-30T02:06:21;101751.13;;;19.34;50.92
44044;BME280;29709;52.396;16.796;2022-07-30T02:09:30;101754.34;;;19.31;51.14
44044;BME280;29709;52.396;16.796;2022-07-30T02:13:03;101745.67;;;19.19;51.37
44044;BME280;29709;52.396;16.796;2022-07-30T02:19:29;101743.88;;;19.12;51.82
44044;BME280;29709;52.396;16.796;2022-07-30T02:22:39;101739.30;;;19.04;52.00
44044;BME280;29709;52.396;16.796;2022-07-30T02:25:47;101741.00;;;18.98;52.65
44044;BME280;29709;52.396;16.796;2022-07-30T02:29:23;101730.85;;;18.91;52.52
44044;BME280;29709;52.396;16.796;2022-07-30T02:32:33;101730.19;;;18.89;52.69
44044;BME280;29709;52.396;16.796;2022-07-30T02:35:38;101728.27;;;18.89;52.71
44044;BME280;29709;52.396;16.796;2022-07-30T02:38:43;101728.48;;;18.88;52.31
44044;BME280;29709;52.396;16.796;2022-07-30T02:41:47;101742.84;;;18.91;52.82
44044;BME280;29709;52.396;16.796;2022-07-30T02:44:57;101742.71;;;18.99;52.26
44044;BME280;29709;52.396;16.796;2022-07-30T02:48:06;101735.80;;;18.95;52.18
44044;BME280;29709;52.396;16.796;2022-07-30T02:51:15;101735.34;;;18.92;53.16
44044;BME280;29709;52.396;16.796;2022-07-30T02:54:19;101728.99;;;18.98;52.87
44044;BME280;29709;52.396;16.796;2022-07-30T02:57:50;101720.36;;;18.93;52.69
44044;BME280;29709;52.396;16.796;2022-07-30T03:00:56;101714.78;;;18.93;52.58
44044;BME280;29709;52.396;16.796;2022-07-30T03:04:00;101704.51;;;18.93;52.22
44044;BME280;29709;52.396;16.796;2022-07-30T03:07:05;101705.16;;;18.95;52.35
44044;BME280;29709;52.396;16.796;2022-07-30T03:10:11;101707.95;;;18.95;52.50
44044;BME280;29709;52.396;16.796;2022-07-30T03:13:16;101697.48;;;18.97;53.38
44044;BME280;29709;52.396;16.796;2022-07-30T03:16:21;101703.05;;;18.97;52.39
44044;BME280;29709;52.396;16.796;2022-07-30T03:22:50;101696.55;;;18.90;52.80
44044;BME280;29709;52.396;16.796;2022-07-30T03:25:59;101689.41;;;18.81;53.52
44044;BME280;29709;52.396;16.796;2022-07-30T03:29:08;101691.34;;;18.81;53.05
44044;BME280;29709;52.396;16.796;2022-07-30T03:32:37;101683.39;;;18.78;53.39
44044;BME280;29709;52.396;16.796;2022-07-30T03:35:42;101672.04;;;18.79;53.87
44044;BME280;29709;52.396;16.796;2022-07-30T03:38:47;101666.92;;;18.83;53.14
44044;BME280;29709;52.396;16.796;2022-07-30T03:41:51;101682.97;;;18.81;53.26
44044;BME280;29709;52.396;16.796;2022-07-30T03:44:56;101679.12;;;18.82;53.07
44044;BME280;29709;52.396;16.796;2022-07-30T03:48:00;101684.28;;;18.85;53.20
44044;BME280;29709;52.396;16.796;2022-07-30T03:51:06;101680.43;;;18.86;53.10
44044;BME280;29709;52.396;16.796;2022-07-30T03:54:12;101684.48;;;18.83;53.24
44044;BME280;29709;52.396;16.796;2022-07-30T03:57:43;101687.93;;;18.85;53.39
44044;BME280;29709;52.396;16.796;2022-07-30T04:00:47;101686.28;;;18.91;53.17
44044;BME280;29709;52.396;16.796;2022-07-30T04:07:08;101690.55;;;18.87;54.10
44044;BME280;29709;52.396;16.796;2022-07-30T04:10:15;101689.69;;;18.86;53.50
44044;BME280;29709;52.396;16.796;2022-07-30T04:13:18;101685.87;;;18.94;53.59
44044;BME280;29709;52.396;16.796;2022-07-30T04:16:36;101692.77;;;18.98;53.35
44044;BME280;29709;52.396;16.796;2022-07-30T04:19:48;101691.23;;;18.95;53.72
44044;BME280;29709;52.396;16.796;2022-07-30T04:22:52;101702.20;;;18.97;53.63
44044;BME280;29709;52.396;16.796;2022-07-30T04:26:21;101701.69;;;18.87;53.84
44044;BME280;29709;52.396;16.796;2022-07-30T04:29:26;101693.32;;;18.87;54.14
44044;BME280;29709;52.396;16.796;2022-07-30T04:32:30;101698.07;;;18.93;53.77
44044;BME280;29709;52.396;16.796;2022-07-30T04:35:34;101705.16;;;18.95;53.64
44044;BME280;29709;52.396;16.796;2022-07-30T04:38:38;101701.51;;;18.95;53.79
44044;BME280;29709;52.396;16.796;2022-07-30T04:41:41;101711.86;;;19.01;53.68
44044;BME280;29709;52.396;16.796;2022-07-30T04:44:45;101707.87;;;19.10;53.47
44044;BME280;29709;52.396;16.796;2022-07-30T04:47:49;101699.54;;;19.17;53.69
44044;BME280;29709;52.396;16.796;2022-07-30T04:50:59;101695.89;;;19.16;53.73
44044;BME280;29709;52.396;16.796;2022-07-30T04:54:39;101700.66;;;19.22;53.58
44044;BME280;29709;52.396;16.796;2022-07-30T05:00:56;101688.52;;;19.37;53.16
44044;BME280;29709;52.396;16.796;2022-07-30T05:04:01;101690.09;;;19.46;53.11
44044;BME280;29709;52.396;16.796;2022-07-30T05:07:05;101684.36;;;19.54;52.85
44044;BME280;29709;52.396;16.796;2022-07-30T05:10:11;101679.25;;;19.57;53.04
44044;BME280;29709;52.396;16.796;2022-07-30T05:13:41;101678.22;;;19.65;53.10
44044;BME280;29709;52.396;16.796;2022-07-30T05:16:44;101670.55;;;19.74;53.21
44044;BME280;29709;52.396;16.796;2022-07-30T05:19:48;101660.08;;;19.82;52.48
44044;BME280;29709;52.396;16.796;2022-07-30T05:26:18;101665.20;;;19.79;52.81
44044;BME280;29709;52.396;16.796;2022-07-30T05:29:22;101663.73;;;19.83;53.02
44044;BME280;29709;52.396;16.796;2022-07-30T05:32:50;101666.73;;;19.81;52.99
44044;BME280;29709;52.396;16.796;2022-07-30T05:35:55;101674.45;;;19.86;53.07
44044;BME280;29709;52.396;16.796;2022-07-30T05:39:02;101662.68;;;19.91;52.96
44044;BME280;29709;52.396;16.796;2022-07-30T05:42:05;101672.78;;;19.98;53.13
44044;BME280;29709;52.396;16.796;2022-07-30T05:45:09;101674.32;;;20.07;52.49
44044;BME280;29709;52.396;16.796;2022-07-30T05:48:12;101676.51;;;20.12;52.78
44044;BME280;29709;52.396;16.796;2022-07-30T05:54:29;101682.94;;;20.19;52.29
44044;BME280;29709;52.396;16.796;2022-07-30T05:57:57;101685.12;;;20.24;52.80
44044;BME280;29709;52.396;16.796;2022-07-30T06:01:00;101684.28;;;20.36;52.59
44044;BME280;29709;52.396;16.796;2022-07-30T06:04:03;101674.61;;;20.39;52.27
44044;BME280;29709;52.396;16.796;2022-07-30T06:07:07;101680.84;;;20.41;52.57
44044;BME280;29709;52.396;16.796;2022-07-30T06:10:10;101688.41;;;20.47;52.93
44044;BME280;29709;52.396;16.796;2022-07-30T06:13:13;101684.98;;;20.52;52.61
44044;BME280;29709;52.396;16.796;2022-07-30T06:16:17;101692.73;;;20.63;52.10
44044;BME280;29709;52.396;16.796;2022-07-30T06:19:20;101694.25;;;20.79;52.08
44044;BME280;29709;52.396;16.796;2022-07-30T06:22:23;101691.48;;;20.85;51.90
44044;BME280;29709;52.396;16.796;2022-07-30T06:25:27;101691.46;;;20.79;51.92
44044;BME280;29709;52.396;16.796;2022-07-30T06:28:56;101686.51;;;20.81;52.41
44044;BME280;29709;52.396;16.796;2022-07-30T06:31:59;101691.46;;;20.92;52.03
44044;BME280;29709;52.396;16.796;2022-07-30T06:35:03;101690.59;;;21.04;51.86
44044;BME280;29709;52.396;16.796;2022-07-30T06:38:09;101685.66;;;21.07;51.32
44044;BME280;29709;52.396;16.796;2022-07-30T06:41:12;101683.06;;;21.12;51.47
44044;BME280;29709;52.396;16.796;2022-07-30T06:44:17;101678.55;;;21.11;51.60
44044;BME280;29709;52.396;16.796;2022-07-30T06:47:21;101685.86;;;21.12;51.68
44044;BME280;29709;52.396;16.796;2022-07-30T06:50:31;101683.70;;;21.14;51.36
44044;BME280;29709;52.396;16.796;2022-07-30T06:53:34;101686.05;;;21.23;51.32
44044;BME280;29709;52.396;16.796;2022-07-30T06:57:03;101695.30;;;21.24;51.37
44044;BME280;29709;52.396;16.796;2022-07-30T07:00:07;101687.61;;;21.26;51.43
44044;BME280;29709;52.396;16.796;2022-07-30T07:03:10;101693.40;;;21.38;50.81
44044;BME280;29709;52.396;16.796;2022-07-30T07:06:14;101690.60;;;21.31;51.07
44044;BME280;29709;52.396;16.796;2022-07-30T07:09:17;101682.16;;;21.44;51.56
44044;BME280;29709;52.396;16.796;2022-07-30T07:12:20;101680.00;;;21.59;50.81
44044;BME280;29709;52.396;16.796;2022-07-30T07:15:24;101682.98;;;21.65;50.87
44044;BME280;29709;52.396;16.796;2022-07-30T07:18:27;101681.26;;;21.70;50.16
44044;BME280;29709;52.396;16.796;2022-07-30T07:21:31;101673.90;;;21.76;50.24
44044;BME280;29709;52.396;16.796;2022-07-30T07:24:34;101684.23;;;21.75;50.24
44044;BME280;29709;52.396;16.796;2022-07-30T07:28:03;101684.22;;;21.82;50.47
44044;BME280;29709;52.396;16.796;2022-07-30T07:31:07;101677.92;;;21.93;50.25
44044;BME280;29709;52.396;16.796;2022-07-30T07:34:11;101679.41;;;21.96;49.91
44044;BME280;29709;52.396;16.796;2022-07-30T07:37:14;101675.52;;;21.97;50.07
44044;BME280;29709;52.396;16.796;2022-07-30T07:40:19;101674.66;;;22.09;50.13
44044;BME280;29709;52.396;16.796;2022-07-30T07:43:22;101672.89;;;22.15;49.96
44044;BME280;29709;52.396;16.796;2022-07-30T07:46:26;101678.49;;;22.15;49.68
44044;BME280;29709;52.396;16.796;2022-07-30T07:49:30;101680.67;;;22.13;49.99
44044;BME280;29709;52.396;16.796;2022-07-30T07:52:33;101668.78;;;22.17;50.04
44044;BME280;29709;52.396;16.796;2022-07-30T07:56:02;101669.64;;;22.18;49.88
44044;BME280;29709;52.396;16.796;2022-07-30T07:59:05;101671.41;;;22.12;50.29
44044;BME280;29709;52.396;16.796;2022-07-30T08:02:08;101669.70;;;22.11;50.18
44044;BME280;29709;52.396;16.796;2022-07-30T08:06:41;101670.87;;;22.29;50.01
44044;BME280;29709;52.396;16.796;2022-07-30T08:09:44;101670.87;;;22.29;49.65
44044;BME280;29709;52.396;16.796;2022-07-30T08:12:47;101664.85;;;22.32;49.78
44044;BME280;29709;52.396;16.796;2022-07-30T08:15:51;101661.13;;;22.38;49.51
44044;BME280;29709;52.396;16.796;2022-07-30T08:18:54;101657.20;;;22.45;49.62
44044;BME280;29709;52.396;16.796;2022-07-30T08:21:57;101664.83;;;22.63;49.59
44044;BME280;29709;52.396;16.796;2022-07-30T08:25:01;101664.68;;;22.83;49.32
44044;BME280;29709;52.396;16.796;2022-07-30T08:28:05;101674.09;;;22.95;49.21
44044;BME280;29709;52.396;16.796;2022-07-30T08:31:08;101668.48;;;22.95;48.39
44044;BME280;29709;52.396;16.796;2022-07-30T08:34:38;101663.62;;;22.84;48.46
44044;BME280;29709;52.396;16.796;2022-07-30T08:37:41;101667.91;;;22.87;49.00
44044;BME280;29709;52.396;16.796;2022-07-30T08:40:45;101660.46;;;22.99;48.26
44044;BME280;29709;52.396;16.796;2022-07-30T08:43:50;101672.53;;;22.99;48.64
44044;BME280;29709;52.396;16.796;2022-07-30T08:46:55;101662.98;;;23.07;48.17
44044;BME280;29709;52.396;16.796;2022-07-30T08:50:01;101654.95;;;23.11;48.02
44044;BME280;29709;52.396;16.796;2022-07-30T08:53:07;101652.23;;;23.04;48.02
44044;BME280;29709;52.396;16.796;2022-07-30T08:56:10;101658.04;;;23.02;47.70
44044;BME280;29709;52.396;16.796;2022-07-30T08:59:13;101649.09;;;22.94;48.35
44044;BME280;29709;52.396;16.796;2022-07-30T09:02:42;101655.88;;;23.04;48.37
44044;BME280;29709;52.396;16.796;2022-07-30T09:05:45;101647.16;;;23.13;48.15
44044;BME280;29709;52.396;16.796;2022-07-30T09:08:49;101657.61;;;23.24;48.25
44044;BME280;29709;52.396;16.796;2022-07-30T09:11:52;101649.53;;;23.34;48.15
44044;BME280;29709;52.396;16.796;2022-07-30T09:18:12;101646.73;;;23.52;48.19
44044;BME280;29709;52.396;16.796;2022-07-30T09:24:53;101648.34;;;23.67;47.83
44044;BME280;29709;52.396;16.796;2022-07-30T09:28:01;101647.32;;;23.79;47.44
44044;BME280;29709;52.396;16.796;2022-07-30T09:31:05;101633.34;;;23.91;47.42
44044;BME280;29709;52.396;16.796;2022-07-30T09:37:24;101620.25;;;24.15;46.33
44044;BME280;29709;52.396;16.796;2022-07-30T09:40:27;101624.80;;;24.28;45.53
44044;BME280;29709;52.396;16.796;2022-07-30T09:43:30;101622.63;;;24.30;45.74
44044;BME280;29709;52.396;16.796;2022-07-30T09:47:01;101632.26;;;24.22;45.67
44044;BME280;29709;52.396;16.796;2022-07-30T09:50:10;101621.50;;;24.19;45.76
44044;BME280;29709;52.396;16.796;2022-07-30T09:53:13;101622.11;;;24.21;45.55
44044;BME280;29709;52.396;16.796;2022-07-30T09:56:26;101622.48;;;24.25;45.71
44044;BME280;29709;52.396;16.796;2022-07-30T09:59:34;101625.29;;;24.25;45.55
44044;BME280;29709;52.396;16.796;2022-07-30T10:02:37;101621.94;;;24.34;45.42
44044;BME280;29709;52.396;16.796;2022-07-30T10:05:54;101626.60;;;24.40;45.06
44044;BME280;29709;52.396;16.796;2022-07-30T10:09:03;101628.34;;;24.53;45.11
44044;BME280;29709;52.396;16.796;2022-07-30T10:12:07;101622.82;;;24.46;44.19
44044;BME280;29709;52.396;16.796;2022-07-30T10:15:14;101624.77;;;24.46;44.94
44044;BME280;29709;52.396;16.796;2022-07-30T10:18:20;101627.13;;;24.49;44.57
44044;BME280;29709;52.396;16.796;2022-07-30T10:21:53;101626.38;;;24.54;44.64
44044;BME280;29709;52.396;16.796;2022-07-30T10:25:01;101627.61;;;24.58;44.27
44044;BME280;29709;52.396;16.796;2022-07-30T10:28:04;101625.80;;;24.63;44.15
44044;BME280;29709;52.396;16.796;2022-07-30T10:31:07;101623.10;;;24.68;43.75
44044;BME280;29709;52.396;16.796;2022-07-30T10:34:16;101626.56;;;24.70;43.75
44044;BME280;29709;52.396;16.796;2022-07-30T10:37:24;101629.22;;;24.65;43.84
44044;BME280;29709;52.396;16.796;2022-07-30T10:40:34;101620.93;;;24.70;43.49
44044;BME280;29709;52.396;16.796;2022-07-30T10:47:05;101628.52;;;24.70;43.87
44044;BME280;29709;52.396;16.796;2022-07-30T10:50:17;101621.55;;;24.72;43.24
44044;BME280;29709;52.396;16.796;2022-07-30T10:56:36;101622.00;;;24.69;43.91
44044;BME280;29709;52.396;16.796;2022-07-30T11:00:07;101623.25;;;24.73;44.17
44044;BME280;29709;52.396;16.796;2022-07-30T11:03:15;101616.04;;;24.89;44.01
44044;BME280;29709;52.396;16.796;2022-07-30T11:06:24;101609.98;;;25.04;43.07
44044;BME280;29709;52.396;16.796;2022-07-30T11:09:40;101614.00;;;25.08;42.80
44044;BME280;29709;52.396;16.796;2022-07-30T11:12:53;101605.70;;;25.01;42.65
44044;BME280;29709;52.396;16.796;2022-07-30T11:15:58;101609.37;;;25.02;42.82
44044;BME280;29709;52.396;16.796;2022-07-30T11:19:26;101620.09;;;24.93;42.71
44044;BME280;29709;52.396;16.796;2022-07-30T11:22:32;101614.46;;;24.82;42.76
44044;BME280;29709;52.396;16.796;2022-07-30T11:25:42;101610.55;;;24.71;43.20
44044;BME280;29709;52.396;16.796;2022-07-30T11:31:57;101610.64;;;24.64;43.46
44044;BME280;29709;52.396;16.796;2022-07-30T11:42:22;101618.07;;;24.59;43.13
44044;BME280;29709;52.396;16.796;2022-07-30T11:48:12;101619.30;;;24.51;43.18
44044;BME280;29709;52.396;16.796;2022-07-30T11:54:30;101617.70;;;24.43;43.48
44044;BME280;29709;52.396;16.796;2022-07-30T11:58:00;101609.52;;;24.54;43.42
44044;BME280;29709;52.396;16.796;2022-07-30T12:01:10;101618.72;;;24.61;43.66
44044;BME280;29709;52.396;16.796;2022-07-30T12:04:13;101614.19;;;24.60;43.42
44044;BME280;29709;52.396;16.796;2022-07-30T12:07:22;101626.05;;;24.62;43.42
44044;BME280;29709;52.396;16.796;2022-07-30T12:10:25;101618.20;;;24.52;43.63
44044;BME280;29709;52.396;16.796;2022-07-30T12:13:28;101614.52;;;24.40;44.29
44044;BME280;29709;52.396;16.796;2022-07-30T12:16:32;101621.11;;;24.45;44.51
44044;BME280;29709;52.396;16.796;2022-07-30T12:23:18;101625.60;;;24.35;44.88
44044;BME280;29709;52.396;16.796;2022-07-30T12:26:31;101627.55;;;24.34;45.09
44044;BME280;29709;52.396;16.796;2022-07-30T12:29:36;101620.77;;;24.24;45.58
44044;BME280;29709;52.396;16.796;2022-07-30T12:32:41;101629.29;;;24.17;46.57
44044;BME280;29709;52.396;16.796;2022-07-30T12:35:47;101634.56;;;23.95;48.91
44044;BME280;29709;52.396;16.796;2022-07-30T12:39:21;101646.22;;;23.80;50.75
44044;BME280;29709;52.396;16.796;2022-07-30T12:42:25;101645.02;;;23.51;52.75
44044;BME280;29709;52.396;16.796;2022-07-30T12:45:31;101654.95;;;23.11;56.11
44044;BME280;29709;52.396;16.796;2022-07-30T12:48:34;101650.37;;;22.91;56.50
44044;BME280;29709;52.396;16.796;2022-07-30T12:54:58;101656.70;;;22.55;59.30
44044;BME280;29709;52.396;16.796;2022-07-30T12:58:04;101659.11;;;22.52;60.35
44044;BME280;29709;52.396;16.796;2022-07-30T13:01:08;101657.95;;;22.59;58.63
44044;BME280;29709;52.396;16.796;2022-07-30T13:07:55;101658.18;;;22.26;60.27
44044;BME280;29709;52.396;16.796;2022-07-30T13:10:59;101653.77;;;21.99;62.18
44044;BME280;29709;52.396;16.796;2022-07-30T13:14:03;101658.80;;;21.83;62.34
44044;BME280;29709;52.396;16.796;2022-07-30T13:17:06;101661.84;;;21.75;64.28
44044;BME280;29709;52.396;16.796;2022-07-30T13:20:13;101657.95;;;21.83;63.31
44044;BME280;29709;52.396;16.796;2022-07-30T13:23:17;101659.49;;;21.79;63.69
44044;BME280;29709;52.396;16.796;2022-07-30T13:26:47;101653.34;;;21.50;64.72
44044;BME280;29709;52.396;16.796;2022-07-30T13:29:53;101651.02;;;21.34;65.73
44044;BME280;29709;52.396;16.796;2022-07-30T13:32:56;101649.52;;;21.31;65.97
44044;BME280;29709;52.396;16.796;2022-07-30T13:35:59;101659.66;;;21.26;66.56
44044;BME280;29709;52.396;16.796;2022-07-30T13:39:02;101663.94;;;21.09;68.84
44044;BME280;29709;52.396;16.796;2022-07-30T13:42:06;101665.65;;;21.03;70.08
44044;BME280;29709;52.396;16.796;2022-07-30T13:45:09;101663.52;;;20.98;71.59
44044;BME280;29709;52.396;16.796;2022-07-30T13:48:12;101664.57;;;21.04;68.40
44044;BME280;29709;52.396;16.796;2022-07-30T13:51:16;101669.12;;;21.05;69.54
44044;BME280;29709;52.396;16.796;2022-07-30T13:54:19;101662.01;;;21.09;69.06
44044;BME280;29709;52.396;16.796;2022-07-30T13:57:47;101664.57;;;21.04;69.35
44044;BME280;29709;52.396;16.796;2022-07-30T14:00:50;101668.88;;;20.93;68.94
44044;BME280;29709;52.396;16.796;2022-07-30T14:03:53;101669.32;;;20.90;71.59
44044;BME280;29709;52.396;16.796;2022-07-30T14:06:57;101667.40;;;20.84;69.73
44044;BME280;29709;52.396;16.796;2022-07-30T14:10:00;101668.26;;;20.78;70.90
44044;BME280;29709;52.396;16.796;2022-07-30T14:13:04;101666.53;;;20.64;71.06
44044;BME280;29709;52.396;16.796;2022-07-30T14:16:07;101665.23;;;20.60;71.23
44044;BME280;29709;52.396;16.796;2022-07-30T14:19:13;101667.81;;;20.55;72.60
44044;BME280;29709;52.396;16.796;2022-07-30T14:22:17;101666.28;;;20.52;72.30
44044;BME280;29709;52.396;16.796;2022-07-30T14:25:48;101663.88;;;20.36;74.12
44044;BME280;29709;52.396;16.796;2022-07-30T14:28:51;101655.70;;;20.28;73.48
44044;BME280;29709;52.396;16.796;2022-07-30T14:31:54;101659.14;;;20.23;73.46
44044;BME280;29709;52.396;16.796;2022-07-30T14:34:58;101665.54;;;20.17;74.08
44044;BME280;29709;52.396;16.796;2022-07-30T14:38:01;101661.47;;;20.13;75.12
44044;BME280;29709;52.396;16.796;2022-07-30T14:41:06;101657.83;;;20.12;74.52
44044;BME280;29709;52.396;16.796;2022-07-30T14:44:10;101661.66;;;20.05;76.37
44044;BME280;29709;52.396;16.796;2022-07-30T14:47:15;101660.16;;;20.02;75.73
44044;BME280;29709;52.396;16.796;2022-07-30T14:50:18;101659.91;;;19.97;76.58
44044;BME280;29709;52.396;16.796;2022-07-30T14:53:21;101660.51;;;19.86;76.42
44044;BME280;29709;52.396;16.796;2022-07-30T14:56:50;101665.18;;;19.72;76.65
44044;BME280;29709;52.396;16.796;2022-07-30T14:59:53;101666.86;;;19.67;77.51
44044;BME280;29709;52.396;16.796;2022-07-30T15:02:56;101649.48;;;19.65;77.42
44044;BME280;29709;52.396;16.796;2022-07-30T15:05:59;101657.20;;;19.63;78.60
44044;BME280;29709;52.396;16.796;2022-07-30T15:09:03;101653.55;;;19.62;78.09
44044;BME280;29709;52.396;16.796;2022-07-30T15:12:07;101656.55;;;19.60;78.41
44044;BME280;29709;52.396;16.796;2022-07-30T15:15:12;101649.83;;;19.55;78.36
44044;BME280;29709;52.396;16.796;2022-07-30T15:21:56;101652.38;;;19.50;78.11
44044;BME280;29709;52.396;16.796;2022-07-30T15:25:03;101647.88;;;19.49;77.77
44044;BME280;29709;52.396;16.796;2022-07-30T15:28:07;101656.63;;;19.46;78.57
44044;BME280;29709;52.396;16.796;2022-07-30T15:31:10;101647.20;;;19.47;79.05
44044;BME280;29709;52.396;16.796;2022-07-30T15:34:13;101650.85;;;19.47;79.32
44044;BME280;29709;52.396;16.796;2022-07-30T15:37:16;101645.48;;;19.46;79.78
44044;BME280;29709;52.396;16.796;2022-07-30T15:40:19;101650.46;;;19.50;79.06
44044;BME280;29709;52.396;16.796;2022-07-30T15:43:23;101648.31;;;19.52;79.15
44044;BME280;29709;52.396;16.796;2022-07-30T15:46:26;101643.25;;;19.63;78.45
44044;BME280;29709;52.396;16.796;2022-07-30T15:49:29;101639.61;;;19.62;78.13
44044;BME280;29709;52.396;16.796;2022-07-30T15:52:57;101644.07;;;19.56;77.97
44044;BME280;29709;52.396;16.796;2022-07-30T15:56:03;101639.09;;;19.52;78.74
44044;BME280;29709;52.396;16.796;2022-07-30T15:59:07;101628.20;;;19.57;78.46
44044;BME280;29709;52.396;16.796;2022-07-30T16:02:14;101627.52;;;19.55;78.38
44044;BME280;29709;52.396;16.796;2022-07-30T16:05:18;101642.52;;;19.54;78.19
44044;BME280;29709;52.396;16.796;2022-07-30T16:08:21;101636.77;;;19.55;78.60
44044;BME280;29709;52.396;16.796;2022-07-30T16:11:24;101638.03;;;19.53;78.21
44044;BME280;29709;52.396;16.796;2022-07-30T16:14:28;101641.46;;;19.55;77.92
44044;BME280;29709;52.396;16.796;2022-07-30T16:17:31;101631.20;;;19.55;78.25
44044;BME280;29709;52.396;16.796;2022-07-30T16:20:59;101633.56;;;19.58;77.88
44044;BME280;29709;52.396;16.796;2022-07-30T16:24:03;101636.61;;;19.64;77.69
44044;BME280;29709;52.396;16.796;2022-07-30T16:27:06;101636.34;;;19.58;77.89
44044;BME280;29709;52.396;16.796;2022-07-30T16:30:11;101626.01;;;19.52;79.10
44044;BME280;29709;52.396;16.796;2022-07-30T16:33:14;101633.77;;;19.57;78.20
44044;BME280;29709;52.396;16.796;2022-07-30T16:36:18;101635.70;;;19.56;78.55
44044;BME280;29709;52.396;16.796;2022-07-30T16:39:21;101643.68;;;19.59;79.04
44044;BME280;29709;52.396;16.796;2022-07-30T16:42:27;101640.25;;;19.64;78.15
44044;BME280;29709;52.396;16.796;2022-07-30T16:45:30;101646.47;;;19.59;78.82
44044;BME280;29709;52.396;16.796;2022-07-30T16:49:00;101643.16;;;19.49;79.02
44044;BME280;29709;52.396;16.796;2022-07-30T16:52:04;101642.48;;;19.47;79.17
44044;BME280;29709;52.396;16.796;2022-07-30T16:55:07;101646.55;;;19.45;79.58
44044;BME280;29709;52.396;16.796;2022-07-30T16:58:10;101654.31;;;19.49;79.54
44044;BME280;29709;52.396;16.796;2022-07-30T17:01:13;101656.47;;;19.54;78.63
44044;BME280;29709;52.396;16.796;2022-07-30T17:04:16;101657.80;;;19.58;78.75
44044;BME280;29709;52.396;16.796;2022-07-30T17:07:22;101658.05;;;19.63;77.88
44044;BME280;29709;52.396;16.796;2022-07-30T17:10:25;101662.35;;;19.66;78.29
44044;BME280;29709;52.396;16.796;2022-07-30T17:13:28;101659.56;;;19.66;79.00
44044;BME280;29709;52.396;16.796;2022-07-30T17:16:31;101650.16;;;19.73;77.63
44044;BME280;29709;52.396;16.796;2022-07-30T17:19:59;101663.68;;;19.70;78.32
44044;BME280;29709;52.396;16.796;2022-07-30T17:23:06;101660.21;;;19.68;78.10
44044;BME280;29709;52.396;16.796;2022-07-30T17:26:10;101663.21;;;19.66;77.62